Terminal Aerodrome Forecast
Issued by NWS Wilmington, OH

Current Version | Previous Version | Text Only | Print | Product List | Glossary Off
Versions: 1 2 3 4 5 6 7 8 9 10 11 12 13 14 15 16 17 18

525
FTUS41 KILN 250544
TAFILN
TAF
KILN 250544Z 2506/2606 22006KT P6SM BKN007 OVC015
     FM250900 19008KT P6SM VCSH OVC009
     FM251300 20007KT P6SM VCSH OVC011
     FM251800 28013KT P6SM VCSH OVC012
     FM252100 30012KT P6SM VCSH OVC025
     FM260400 28010KT P6SM SCT025=

USA.gov is the U.S. government's official web portal to all federal, state and local government web resources and services.